sensor_id;sensor_type;location;lat;lon;timestamp;P1;durP1;ratioP1;P2;durP2;ratioP2
64959;SDS011;51487;52.266;10.542;2022-10-16T00:01:24;2.15;;;1.38;;
64959;SDS011;51487;52.266;10.542;2022-10-16T00:03:53;1.95;;;1.40;;
64959;SDS011;51487;52.266;10.542;2022-10-16T00:06:20;1.60;;;1.50;;
64959;SDS011;51487;52.266;10.542;2022-10-16T00:08:47;2.00;;;1.50;;
64959;SDS011;51487;52.266;10.542;2022-10-16T00:11:15;3.65;;;2.40;;
64959;SDS011;51487;52.266;10.542;2022-10-16T00:13:47;1.95;;;1.52;;
64959;SDS011;51487;52.266;10.542;2022-10-16T00:16:16;2.97;;;1.73;;
64959;SDS011;51487;52.266;10.542;2022-10-16T00:18:43;2.08;;;1.58;;
64959;SDS011;51487;52.266;10.542;2022-10-16T00:21:10;2.85;;;1.80;;
64959;SDS011;51487;52.266;10.542;2022-10-16T00:23:39;1.58;;;1.48;;
64959;SDS011;51487;52.266;10.542;2022-10-16T00:26:07;1.65;;;1.55;;
64959;SDS011;51487;52.266;10.542;2022-10-16T00:28:37;3.33;;;1.80;;
64959;SDS011;51487;52.266;10.542;2022-10-16T00:31:04;1.70;;;1.55;;
64959;SDS011;51487;52.266;10.542;2022-10-16T00:33:33;2.35;;;1.73;;
64959;SDS011;51487;52.266;10.542;2022-10-16T00:35:59;2.60;;;1.67;;
64959;SDS011;51487;52.266;10.542;2022-10-16T00:38:27;3.75;;;1.80;;
64959;SDS011;51487;52.266;10.542;2022-10-16T00:40:53;2.55;;;1.80;;
64959;SDS011;51487;52.266;10.542;2022-10-16T00:46:10;4.32;;;1.80;;
64959;SDS011;51487;52.266;10.542;2022-10-16T00:49:29;2.15;;;1.60;;
64959;SDS011;51487;52.266;10.542;2022-10-16T00:51:49;3.33;;;1.75;;
64959;SDS011;51487;52.266;10.542;2022-10-16T00:54:22;3.03;;;1.90;;
64959;SDS011;51487;52.266;10.542;2022-10-16T00:56:52;2.08;;;1.80;;
64959;SDS011;51487;52.266;10.542;2022-10-16T00:59:25;1.83;;;1.60;;
64959;SDS011;51487;52.266;10.542;2022-10-16T01:01:52;2.67;;;1.50;;
64959;SDS011;51487;52.266;10.542;2022-10-16T01:04:19;2.63;;;1.65;;
64959;SDS011;51487;52.266;10.542;2022-10-16T01:10:17;2.58;;;1.73;;
64959;SDS011;51487;52.266;10.542;2022-10-16T01:13:19;2.30;;;1.70;;
64959;SDS011;51487;52.266;10.542;2022-10-16T01:16:16;1.73;;;1.63;;
64959;SDS011;51487;52.266;10.542;2022-10-16T01:19:05;6.90;;;2.15;;
64959;SDS011;51487;52.266;10.542;2022-10-16T01:21:42;1.88;;;1.60;;
64959;SDS011;51487;52.266;10.542;2022-10-16T01:24:27;1.65;;;1.55;;
64959;SDS011;51487;52.266;10.542;2022-10-16T01:27:12;2.45;;;1.50;;
64959;SDS011;51487;52.266;10.542;2022-10-16T01:30:09;3.28;;;1.83;;
64959;SDS011;51487;52.266;10.542;2022-10-16T01:32:50;3.28;;;1.60;;
64959;SDS011;51487;52.266;10.542;2022-10-16T01:40:44;2.80;;;1.50;;
64959;SDS011;51487;52.266;10.542;2022-10-16T01:43:22;2.40;;;1.50;;
64959;SDS011;51487;52.266;10.542;2022-10-16T01:45:55;2.20;;;1.50;;
64959;SDS011;51487;52.266;10.542;2022-10-16T01:48:23;1.55;;;1.40;;
64959;SDS011;51487;52.266;10.542;2022-10-16T01:51:01;1.73;;;1.48;;
64959;SDS011;51487;52.266;10.542;2022-10-16T01:53:34;1.60;;;1.50;;
64959;SDS011;51487;52.266;10.542;2022-10-16T01:56:02;1.80;;;1.50;;
64959;SDS011;51487;52.266;10.542;2022-10-16T01:58:34;2.87;;;1.50;;
64959;SDS011;51487;52.266;10.542;2022-10-16T02:01:05;1.83;;;1.60;;
64959;SDS011;51487;52.266;10.542;2022-10-16T02:03:35;1.73;;;1.50;;
64959;SDS011;51487;52.266;10.542;2022-10-16T02:06:06;2.45;;;1.50;;
64959;SDS011;51487;52.266;10.542;2022-10-16T02:08:33;2.03;;;1.60;;
64959;SDS011;51487;52.266;10.542;2022-10-16T02:11:00;2.08;;;1.50;;
64959;SDS011;51487;52.266;10.542;2022-10-16T02:13:30;2.92;;;2.00;;
64959;SDS011;51487;52.266;10.542;2022-10-16T02:16:01;4.45;;;1.70;;
64959;SDS011;51487;52.266;10.542;2022-10-16T02:18:27;3.92;;;1.83;;
64959;SDS011;51487;52.266;10.542;2022-10-16T02:20:57;3.78;;;1.80;;
64959;SDS011;51487;52.266;10.542;2022-10-16T02:26:07;4.32;;;2.40;;
64959;SDS011;51487;52.266;10.542;2022-10-16T02:28:40;3.63;;;2.03;;
64959;SDS011;51487;52.266;10.542;2022-10-16T02:31:12;2.40;;;2.00;;
64959;SDS011;51487;52.266;10.542;2022-10-16T02:33:43;2.85;;;1.92;;
64959;SDS011;51487;52.266;10.542;2022-10-16T02:36:11;6.32;;;2.22;;
64959;SDS011;51487;52.266;10.542;2022-10-16T02:38:37;5.18;;;2.03;;
64959;SDS011;51487;52.266;10.542;2022-10-16T02:41:04;3.70;;;1.80;;
64959;SDS011;51487;52.266;10.542;2022-10-16T02:43:31;3.47;;;1.80;;
64959;SDS011;51487;52.266;10.542;2022-10-16T02:45:58;2.97;;;1.60;;
64959;SDS011;51487;52.266;10.542;2022-10-16T02:48:24;4.72;;;2.08;;
64959;SDS011;51487;52.266;10.542;2022-10-16T02:50:49;2.70;;;1.80;;
64959;SDS011;51487;52.266;10.542;2022-10-16T02:53:16;3.15;;;1.85;;
64959;SDS011;51487;52.266;10.542;2022-10-16T02:55:41;4.07;;;1.92;;
64959;SDS011;51487;52.266;10.542;2022-10-16T02:58:07;5.97;;;2.20;;
64959;SDS011;51487;52.266;10.542;2022-10-16T03:00:32;4.32;;;2.08;;
64959;SDS011;51487;52.266;10.542;2022-10-16T03:02:58;3.30;;;1.80;;
64959;SDS011;51487;52.266;10.542;2022-10-16T03:05:23;3.97;;;2.10;;
64959;SDS011;51487;52.266;10.542;2022-10-16T03:07:48;5.43;;;2.05;;
64959;SDS011;51487;52.266;10.542;2022-10-16T03:10:14;4.20;;;2.30;;
64959;SDS011;51487;52.266;10.542;2022-10-16T03:12:40;3.90;;;2.10;;
64959;SDS011;51487;52.266;10.542;2022-10-16T03:15:05;4.97;;;2.58;;
64959;SDS011;51487;52.266;10.542;2022-10-16T03:17:32;3.75;;;2.13;;
64959;SDS011;51487;52.266;10.542;2022-10-16T03:19:58;3.85;;;2.20;;
64959;SDS011;51487;52.266;10.542;2022-10-16T03:22:23;5.32;;;2.25;;
64959;SDS011;51487;52.266;10.542;2022-10-16T03:24:49;3.95;;;2.20;;
64959;SDS011;51487;52.266;10.542;2022-10-16T03:27:14;5.88;;;2.40;;
64959;SDS011;51487;52.266;10.542;2022-10-16T03:29:40;5.93;;;2.20;;
64959;SDS011;51487;52.266;10.542;2022-10-16T03:32:05;5.38;;;2.00;;
64959;SDS011;51487;52.266;10.542;2022-10-16T03:34:31;8.10;;;2.47;;
64959;SDS011;51487;52.266;10.542;2022-10-16T03:36:56;4.43;;;2.10;;
64959;SDS011;51487;52.266;10.542;2022-10-16T03:39:22;3.63;;;2.13;;
64959;SDS011;51487;52.266;10.542;2022-10-16T03:41:48;5.60;;;2.22;;
64959;SDS011;51487;52.266;10.542;2022-10-16T03:44:13;3.28;;;2.10;;
64959;SDS011;51487;52.266;10.542;2022-10-16T03:46:39;4.78;;;2.47;;
64959;SDS011;51487;52.266;10.542;2022-10-16T03:49:04;4.13;;;2.40;;
64959;SDS011;51487;52.266;10.542;2022-10-16T03:51:30;6.05;;;2.78;;
64959;SDS011;51487;52.266;10.542;2022-10-16T03:53:55;5.45;;;2.80;;
64959;SDS011;51487;52.266;10.542;2022-10-16T03:56:21;3.28;;;2.40;;
64959;SDS011;51487;52.266;10.542;2022-10-16T03:58:46;3.22;;;2.28;;
64959;SDS011;51487;52.266;10.542;2022-10-16T04:01:12;6.80;;;2.45;;
64959;SDS011;51487;52.266;10.542;2022-10-16T04:03:37;4.72;;;2.47;;
64959;SDS011;51487;52.266;10.542;2022-10-16T04:06:03;5.45;;;2.40;;
64959;SDS011;51487;52.266;10.542;2022-10-16T04:08:29;3.63;;;2.22;;
64959;SDS011;51487;52.266;10.542;2022-10-16T04:10:54;4.78;;;2.60;;
64959;SDS011;51487;52.266;10.542;2022-10-16T04:13:20;5.15;;;2.47;;
64959;SDS011;51487;52.266;10.542;2022-10-16T04:15:45;3.97;;;2.55;;
64959;SDS011;51487;52.266;10.542;2022-10-16T04:18:11;4.20;;;2.50;;
64959;SDS011;51487;52.266;10.542;2022-10-16T04:20:37;2.40;;;2.20;;
64959;SDS011;51487;52.266;10.542;2022-10-16T04:23:03;3.33;;;2.22;;
64959;SDS011;51487;52.266;10.542;2022-10-16T04:25:29;3.67;;;2.38;;
64959;SDS011;51487;52.266;10.542;2022-10-16T04:27:55;2.90;;;2.33;;
64959;SDS011;51487;52.266;10.542;2022-10-16T04:30:21;7.68;;;2.78;;
64959;SDS011;51487;52.266;10.542;2022-10-16T04:32:48;3.13;;;2.35;;
64959;SDS011;51487;52.266;10.542;2022-10-16T04:35:16;3.78;;;2.13;;
64959;SDS011;51487;52.266;10.542;2022-10-16T04:37:43;6.32;;;2.55;;
64959;SDS011;51487;52.266;10.542;2022-10-16T04:40:08;5.60;;;2.50;;
64959;SDS011;51487;52.266;10.542;2022-10-16T04:42:34;5.03;;;2.25;;
64959;SDS011;51487;52.266;10.542;2022-10-16T04:44:59;4.55;;;2.30;;
64959;SDS011;51487;52.266;10.542;2022-10-16T04:47:25;3.55;;;2.28;;
64959;SDS011;51487;52.266;10.542;2022-10-16T04:49:50;5.55;;;2.10;;
64959;SDS011;51487;52.266;10.542;2022-10-16T04:52:16;3.63;;;2.00;;
64959;SDS011;51487;52.266;10.542;2022-10-16T04:54:43;4.05;;;2.30;;
64959;SDS011;51487;52.266;10.542;2022-10-16T04:57:10;3.28;;;2.40;;
64959;SDS011;51487;52.266;10.542;2022-10-16T04:59:36;2.80;;;2.30;;
64959;SDS011;51487;52.266;10.542;2022-10-16T05:02:02;4.95;;;2.15;;
64959;SDS011;51487;52.266;10.542;2022-10-16T05:04:28;4.22;;;2.20;;
64959;SDS011;51487;52.266;10.542;2022-10-16T05:06:53;3.22;;;2.50;;
64959;SDS011;51487;52.266;10.542;2022-10-16T05:09:19;4.10;;;2.38;;
64959;SDS011;51487;52.266;10.542;2022-10-16T05:11:44;7.47;;;2.10;;
64959;SDS011;51487;52.266;10.542;2022-10-16T05:14:10;3.63;;;2.17;;
64959;SDS011;51487;52.266;10.542;2022-10-16T05:16:35;5.18;;;2.30;;
64959;SDS011;51487;52.266;10.542;2022-10-16T05:19:01;2.92;;;2.22;;
64959;SDS011;51487;52.266;10.542;2022-10-16T05:21:26;4.18;;;2.40;;
64959;SDS011;51487;52.266;10.542;2022-10-16T05:23:53;2.67;;;2.10;;
64959;SDS011;51487;52.266;10.542;2022-10-16T05:26:19;3.40;;;2.20;;
64959;SDS011;51487;52.266;10.542;2022-10-16T05:28:45;2.95;;;2.20;;
64959;SDS011;51487;52.266;10.542;2022-10-16T05:31:11;3.38;;;2.45;;
64959;SDS011;51487;52.266;10.542;2022-10-16T05:33:36;5.60;;;2.20;;
64959;SDS011;51487;52.266;10.542;2022-10-16T05:36:06;2.90;;;2.20;;
64959;SDS011;51487;52.266;10.542;2022-10-16T05:38:34;5.13;;;2.42;;
64959;SDS011;51487;52.266;10.542;2022-10-16T05:41:02;2.58;;;2.17;;
64959;SDS011;51487;52.266;10.542;2022-10-16T05:43:30;3.30;;;2.30;;
64959;SDS011;51487;52.266;10.542;2022-10-16T05:45:57;2.55;;;2.30;;
64959;SDS011;51487;52.266;10.542;2022-10-16T05:48:26;2.88;;;2.17;;
64959;SDS011;51487;52.266;10.542;2022-10-16T05:50:59;2.85;;;2.38;;
64959;SDS011;51487;52.266;10.542;2022-10-16T05:53:32;2.58;;;2.38;;
64959;SDS011;51487;52.266;10.542;2022-10-16T05:56:00;3.90;;;2.58;;
64959;SDS011;51487;52.266;10.542;2022-10-16T05:58:31;3.35;;;2.30;;
64959;SDS011;51487;52.266;10.542;2022-10-16T06:01:16;2.58;;;2.38;;
64959;SDS011;51487;52.266;10.542;2022-10-16T06:03:43;5.30;;;2.70;;
64959;SDS011;51487;52.266;10.542;2022-10-16T06:06:16;3.55;;;2.63;;
64959;SDS011;51487;52.266;10.542;2022-10-16T06:08:48;5.13;;;2.70;;
64959;SDS011;51487;52.266;10.542;2022-10-16T06:11:19;3.63;;;2.30;;
64959;SDS011;51487;52.266;10.542;2022-10-16T06:13:52;3.53;;;2.60;;
64959;SDS011;51487;52.266;10.542;2022-10-16T06:16:21;4.38;;;2.40;;
64959;SDS011;51487;52.266;10.542;2022-10-16T06:18:50;2.63;;;2.20;;
64959;SDS011;51487;52.266;10.542;2022-10-16T06:21:17;4.63;;;2.80;;
64959;SDS011;51487;52.266;10.542;2022-10-16T06:23:52;2.95;;;2.38;;
64959;SDS011;51487;52.266;10.542;2022-10-16T06:26:21;3.08;;;2.70;;
64959;SDS011;51487;52.266;10.542;2022-10-16T06:28:50;2.88;;;2.47;;
64959;SDS011;51487;52.266;10.542;2022-10-16T06:31:16;3.85;;;2.70;;
64959;SDS011;51487;52.266;10.542;2022-10-16T06:33:42;2.50;;;2.30;;
64959;SDS011;51487;52.266;10.542;2022-10-16T06:36:12;2.63;;;2.40;;
64959;SDS011;51487;52.266;10.542;2022-10-16T06:38:40;5.27;;;3.90;;
64959;SDS011;51487;52.266;10.542;2022-10-16T06:41:07;3.58;;;2.78;;
64959;SDS011;51487;52.266;10.542;2022-10-16T06:43:37;5.10;;;2.60;;
64959;SDS011;51487;52.266;10.542;2022-10-16T06:46:04;5.53;;;2.67;;
64959;SDS011;51487;52.266;10.542;2022-10-16T06:48:35;3.63;;;2.23;;
64959;SDS011;51487;52.266;10.542;2022-10-16T06:51:05;2.45;;;1.98;;
64959;SDS011;51487;52.266;10.542;2022-10-16T06:53:36;4.30;;;2.40;;
64959;SDS011;51487;52.266;10.542;2022-10-16T06:56:09;4.30;;;2.25;;
64959;SDS011;51487;52.266;10.542;2022-10-16T06:58:38;4.80;;;2.47;;
64959;SDS011;51487;52.266;10.542;2022-10-16T07:01:04;3.67;;;2.38;;
64959;SDS011;51487;52.266;10.542;2022-10-16T07:03:30;3.05;;;2.17;;
64959;SDS011;51487;52.266;10.542;2022-10-16T07:05:56;5.53;;;2.70;;
64959;SDS011;51487;52.266;10.542;2022-10-16T07:08:27;5.80;;;2.30;;
64959;SDS011;51487;52.266;10.542;2022-10-16T07:11:02;2.55;;;1.92;;
64959;SDS011;51487;52.266;10.542;2022-10-16T07:13:32;3.20;;;2.10;;
64959;SDS011;51487;52.266;10.542;2022-10-16T07:18:32;3.85;;;2.35;;
64959;SDS011;51487;52.266;10.542;2022-10-16T07:21:05;2.60;;;2.15;;
64959;SDS011;51487;52.266;10.542;2022-10-16T07:23:42;4.03;;;1.83;;
64959;SDS011;51487;52.266;10.542;2022-10-16T07:26:09;3.65;;;1.85;;
64959;SDS011;51487;52.266;10.542;2022-10-16T07:28:35;2.50;;;1.90;;
64959;SDS011;51487;52.266;10.542;2022-10-16T07:31:06;6.25;;;2.40;;
64959;SDS011;51487;52.266;10.542;2022-10-16T07:33:36;3.40;;;2.28;;
64959;SDS011;51487;52.266;10.542;2022-10-16T07:36:03;3.20;;;2.20;;
64959;SDS011;51487;52.266;10.542;2022-10-16T07:38:30;4.95;;;2.20;;
64959;SDS011;51487;52.266;10.542;2022-10-16T07:40:59;3.22;;;1.98;;
64959;SDS011;51487;52.266;10.542;2022-10-16T07:43:27;2.47;;;1.65;;
64959;SDS011;51487;52.266;10.542;2022-10-16T07:45:53;4.43;;;1.63;;
64959;SDS011;51487;52.266;10.542;2022-10-16T07:48:20;2.33;;;1.45;;
64959;SDS011;51487;52.266;10.542;2022-10-16T07:50:47;4.72;;;1.65;;
64959;SDS011;51487;52.266;10.542;2022-10-16T07:53:13;5.35;;;1.52;;
64959;SDS011;51487;52.266;10.542;2022-10-16T07:55:39;2.95;;;1.88;;
64959;SDS011;51487;52.266;10.542;2022-10-16T07:58:05;3.40;;;1.63;;
64959;SDS011;51487;52.266;10.542;2022-10-16T08:00:31;2.60;;;1.65;;
64959;SDS011;51487;52.266;10.542;2022-10-16T08:02:58;1.95;;;1.52;;
64959;SDS011;51487;52.266;10.542;2022-10-16T08:05:27;1.52;;;1.40;;
64959;SDS011;51487;52.266;10.542;2022-10-16T08:07:54;2.78;;;1.50;;
64959;SDS011;51487;52.266;10.542;2022-10-16T08:10:21;2.05;;;1.50;;
64959;SDS011;51487;52.266;10.542;2022-10-16T08:12:50;1.75;;;1.45;;
64959;SDS011;51487;52.266;10.542;2022-10-16T08:15:16;2.55;;;1.50;;
64959;SDS011;51487;52.266;10.542;2022-10-16T08:17:42;2.55;;;1.70;;
64959;SDS011;51487;52.266;10.542;2022-10-16T08:20:08;3.17;;;1.90;;
64959;SDS011;51487;52.266;10.542;2022-10-16T08:22:35;1.88;;;1.55;;
64959;SDS011;51487;52.266;10.542;2022-10-16T08:25:00;7.03;;;1.75;;
64959;SDS011;51487;52.266;10.542;2022-10-16T08:27:30;5.47;;;1.80;;
64959;SDS011;51487;52.266;10.542;2022-10-16T08:29:57;2.85;;;1.70;;
64959;SDS011;51487;52.266;10.542;2022-10-16T08:32:22;3.80;;;2.00;;
64959;SDS011;51487;52.266;10.542;2022-10-16T08:34:48;1.70;;;1.60;;
64959;SDS011;51487;52.266;10.542;2022-10-16T08:37:14;3.25;;;2.00;;
64959;SDS011;51487;52.266;10.542;2022-10-16T08:39:39;2.50;;;1.88;;
64959;SDS011;51487;52.266;10.542;2022-10-16T08:42:28;2.60;;;1.50;;
64959;SDS011;51487;52.266;10.542;2022-10-16T08:48:15;2.42;;;1.55;;
64959;SDS011;51487;52.266;10.542;2022-10-16T08:50:45;3.72;;;1.60;;
64959;SDS011;51487;52.266;10.542;2022-10-16T08:53:25;2.65;;;1.63;;
64959;SDS011;51487;52.266;10.542;2022-10-16T08:55:56;3.75;;;1.27;;
64959;SDS011;51487;52.266;10.542;2022-10-16T08:58:26;2.65;;;1.30;;
64959;SDS011;51487;52.266;10.542;2022-10-16T09:01:04;3.42;;;1.92;;
64959;SDS011;51487;52.266;10.542;2022-10-16T09:13:08;1.05;;;1.05;;
64959;SDS011;51487;52.266;10.542;2022-10-16T09:18:41;2.80;;;1.10;;
64959;SDS011;51487;52.266;10.542;2022-10-16T09:21:35;2.45;;;1.10;;
64959;SDS011;51487;52.266;10.542;2022-10-16T09:24:15;1.33;;;0.90;;
64959;SDS011;51487;52.266;10.542;2022-10-16T09:26:46;2.10;;;0.90;;
64959;SDS011;51487;52.266;10.542;2022-10-16T09:29:16;2.45;;;0.90;;
64959;SDS011;51487;52.266;10.542;2022-10-16T09:31:45;1.25;;;1.00;;
64959;SDS011;51487;52.266;10.542;2022-10-16T09:34:32;4.70;;;1.10;;
64959;SDS011;51487;52.266;10.542;2022-10-16T09:37:01;0.90;;;0.90;;
64959;SDS011;51487;52.266;10.542;2022-10-16T09:39:44;1.75;;;0.90;;
64959;SDS011;51487;52.266;10.542;2022-10-16T09:42:18;1.17;;;1.05;;
64959;SDS011;51487;52.266;10.542;2022-10-16T09:44:50;2.78;;;1.00;;
64959;SDS011;51487;52.266;10.542;2022-10-16T09:47:20;1.67;;;0.95;;
64959;SDS011;51487;52.266;10.542;2022-10-16T09:49:56;1.17;;;0.90;;
64959;SDS011;51487;52.266;10.542;2022-10-16T09:52:29;1.40;;;1.05;;
64959;SDS011;51487;52.266;10.542;2022-10-16T09:54:59;0.90;;;0.90;;
64959;SDS011;51487;52.266;10.542;2022-10-16T09:57:53;2.38;;;0.90;;
64959;SDS011;51487;52.266;10.542;2022-10-16T10:00:20;1.40;;;1.08;;
64959;SDS011;51487;52.266;10.542;2022-10-16T10:02:48;2.13;;;1.00;;
64959;SDS011;51487;52.266;10.542;2022-10-16T10:05:20;0.98;;;0.90;;
64959;SDS011;51487;52.266;10.542;2022-10-16T10:07:59;1.08;;;0.90;;
64959;SDS011;51487;52.266;10.542;2022-10-16T10:10:31;2.60;;;1.00;;
64959;SDS011;51487;52.266;10.542;2022-10-16T10:13:04;2.45;;;0.90;;
64959;SDS011;51487;52.266;10.542;2022-10-16T10:15:45;5.47;;;1.77;;
64959;SDS011;51487;52.266;10.542;2022-10-16T10:18:20;0.95;;;0.90;;
64959;SDS011;51487;52.266;10.542;2022-10-16T10:20:58;2.58;;;0.85;;
64959;SDS011;51487;52.266;10.542;2022-10-16T10:23:27;2.85;;;1.60;;
64959;SDS011;51487;52.266;10.542;2022-10-16T10:59:01;1.08;;;0.90;;
64959;SDS011;51487;52.266;10.542;2022-10-16T11:02:10;4.53;;;0.98;;
64959;SDS011;51487;52.266;10.542;2022-10-16T11:07:25;1.77;;;0.95;;
64959;SDS011;51487;52.266;10.542;2022-10-16T11:09:58;1.98;;;0.93;;
64959;SDS011;51487;52.266;10.542;2022-10-16T11:12:49;2.22;;;1.10;;
64959;SDS011;51487;52.266;10.542;2022-10-16T11:15:29;1.05;;;0.80;;
64959;SDS011;51487;52.266;10.542;2022-10-16T11:18:08;1.35;;;0.98;;
64959;SDS011;51487;52.266;10.542;2022-10-16T11:23:37;2.65;;;1.17;;
64959;SDS011;51487;52.266;10.542;2022-10-16T11:26:23;3.00;;;1.23;;
64959;SDS011;51487;52.266;10.542;2022-10-16T11:28:56;2.97;;;1.13;;
64959;SDS011;51487;52.266;10.542;2022-10-16T11:34:32;3.55;;;1.20;;
64959;SDS011;51487;52.266;10.542;2022-10-16T11:37:41;3.38;;;0.90;;
64959;SDS011;51487;52.266;10.542;2022-10-16T11:40:24;1.52;;;0.80;;
64959;SDS011;51487;52.266;10.542;2022-10-16T11:43:02;1.85;;;0.90;;
64959;SDS011;51487;52.266;10.542;2022-10-16T11:45:41;3.03;;;1.60;;
64959;SDS011;51487;52.266;10.542;2022-10-16T11:57:39;1.20;;;0.80;;
64959;SDS011;51487;52.266;10.542;2022-10-16T12:00:20;2.05;;;0.90;;
64959;SDS011;51487;52.266;10.542;2022-10-16T12:08:37;4.43;;;1.15;;
64959;SDS011;51487;52.266;10.542;2022-10-16T12:11:37;4.63;;;0.90;;
64959;SDS011;51487;52.266;10.542;2022-10-16T12:14:59;1.52;;;0.77;;
64959;SDS011;51487;52.266;10.542;2022-10-16T12:19:58;2.58;;;1.00;;
64959;SDS011;51487;52.266;10.542;2022-10-16T12:28:01;2.72;;;1.10;;
64959;SDS011;51487;52.266;10.542;2022-10-16T12:30:39;3.00;;;1.08;;
64959;SDS011;51487;52.266;10.542;2022-10-16T12:33:24;2.83;;;0.90;;
64959;SDS011;51487;52.266;10.542;2022-10-16T12:35:54;1.42;;;0.85;;
64959;SDS011;51487;52.266;10.542;2022-10-16T12:41:11;1.88;;;0.98;;
64959;SDS011;51487;52.266;10.542;2022-10-16T12:43:43;0.80;;;0.80;;
64959;SDS011;51487;52.266;10.542;2022-10-16T12:48:38;5.50;;;0.98;;
64959;SDS011;51487;52.266;10.542;2022-10-16T12:51:50;1.42;;;0.90;;
64959;SDS011;51487;52.266;10.542;2022-10-16T12:54:01;1.17;;;1.08;;
64959;SDS011;51487;52.266;10.542;2022-10-16T12:56:43;1.98;;;0.80;;
64959;SDS011;51487;52.266;10.542;2022-10-16T12:59:42;2.20;;;1.00;;
64959;SDS011;51487;52.266;10.542;2022-10-16T13:17:40;5.72;;;1.77;;
64959;SDS011;51487;52.266;10.542;2022-10-16T13:23:38;2.47;;;1.20;;
64959;SDS011;51487;52.266;10.542;2022-10-16T13:26:26;3.38;;;1.25;;
64959;SDS011;51487;52.266;10.542;2022-10-16T13:29:03;3.85;;;1.30;;
64959;SDS011;51487;52.266;10.542;2022-10-16T13:31:29;4.15;;;1.55;;
64959;SDS011;51487;52.266;10.542;2022-10-16T13:33:57;4.65;;;1.50;;
64959;SDS011;51487;52.266;10.542;2022-10-16T13:36:44;2.17;;;1.35;;
64959;SDS011;51487;52.266;10.542;2022-10-16T13:39:25;1.30;;;1.10;;
64959;SDS011;51487;52.266;10.542;2022-10-16T13:42:13;3.75;;;1.45;;
64959;SDS011;51487;52.266;10.542;2022-10-16T13:44:52;2.53;;;1.38;;
64959;SDS011;51487;52.266;10.542;2022-10-16T13:47:20;2.92;;;1.40;;
64959;SDS011;51487;52.266;10.542;2022-10-16T13:50:01;2.40;;;1.30;;
64959;SDS011;51487;52.266;10.542;2022-10-16T13:52:30;1.77;;;1.30;;
64959;SDS011;51487;52.266;10.542;2022-10-16T13:54:56;2.13;;;0.95;;
64959;SDS011;51487;52.266;10.542;2022-10-16T13:57:23;1.65;;;1.02;;
64959;SDS011;51487;52.266;10.542;2022-10-16T13:59:50;3.75;;;1.15;;
64959;SDS011;51487;52.266;10.542;2022-10-16T14:02:26;1.38;;;0.90;;
64959;SDS011;51487;52.266;10.542;2022-10-16T14:05:00;1.65;;;0.98;;
64959;SDS011;51487;52.266;10.542;2022-10-16T14:07:29;2.35;;;0.80;;
64959;SDS011;51487;52.266;10.542;2022-10-16T14:10:00;3.13;;;1.00;;
64959;SDS011;51487;52.266;10.542;2022-10-16T14:12:32;1.38;;;0.90;;
64959;SDS011;51487;52.266;10.542;2022-10-16T14:14:58;3.72;;;1.20;;
64959;SDS011;51487;52.266;10.542;2022-10-16T14:17:26;2.63;;;0.85;;
64959;SDS011;51487;52.266;10.542;2022-10-16T14:19:59;3.35;;;1.10;;
64959;SDS011;51487;52.266;10.542;2022-10-16T14:25:00;1.00;;;0.80;;
64959;SDS011;51487;52.266;10.542;2022-10-16T14:27:57;1.17;;;0.70;;
64959;SDS011;51487;52.266;10.542;2022-10-16T14:30:27;2.28;;;0.90;;
64959;SDS011;51487;52.266;10.542;2022-10-16T14:32:56;1.42;;;0.85;;
64959;SDS011;51487;52.266;10.542;2022-10-16T14:35:34;1.83;;;0.80;;
64959;SDS011;51487;52.266;10.542;2022-10-16T14:38:05;1.55;;;0.80;;
64959;SDS011;51487;52.266;10.542;2022-10-16T14:40:46;0.98;;;0.70;;
64959;SDS011;51487;52.266;10.542;2022-10-16T14:43:15;1.10;;;0.75;;
64959;SDS011;51487;52.266;10.542;2022-10-16T14:45:54;0.95;;;0.80;;
64959;SDS011;51487;52.266;10.542;2022-10-16T14:48:22;1.63;;;1.02;;
64959;SDS011;51487;52.266;10.542;2022-10-16T14:50:48;3.28;;;1.40;;
64959;SDS011;51487;52.266;10.542;2022-10-16T14:53:15;1.48;;;1.30;;
64959;SDS011;51487;52.266;10.542;2022-10-16T14:55:41;1.67;;;1.13;;
64959;SDS011;51487;52.266;10.542;2022-10-16T14:58:21;4.03;;;1.80;;
64959;SDS011;51487;52.266;10.542;2022-10-16T15:00:48;2.95;;;1.30;;
64959;SDS011;51487;52.266;10.542;2022-10-16T15:03:14;3.58;;;1.33;;
64959;SDS011;51487;52.266;10.542;2022-10-16T15:05:41;4.28;;;1.48;;
64959;SDS011;51487;52.266;10.542;2022-10-16T15:08:06;2.88;;;1.65;;
64959;SDS011;51487;52.266;10.542;2022-10-16T15:10:33;3.55;;;2.00;;
64959;SDS011;51487;52.266;10.542;2022-10-16T15:13:04;2.35;;;1.40;;
64959;SDS011;51487;52.266;10.542;2022-10-16T15:18:06;2.75;;;1.15;;
64959;SDS011;51487;52.266;10.542;2022-10-16T15:20:36;4.22;;;0.85;;
64959;SDS011;51487;52.266;10.542;2022-10-16T15:23:14;1.13;;;0.82;;
64959;SDS011;51487;52.266;10.542;2022-10-16T15:28:12;2.90;;;1.10;;
64959;SDS011;51487;52.266;10.542;2022-10-16T15:30:40;2.75;;;1.00;;
64959;SDS011;51487;52.266;10.542;2022-10-16T15:33:11;2.88;;;0.90;;
64959;SDS011;51487;52.266;10.542;2022-10-16T15:35:52;4.22;;;0.95;;
64959;SDS011;51487;52.266;10.542;2022-10-16T15:38:18;2.33;;;0.95;;
64959;SDS011;51487;52.266;10.542;2022-10-16T15:40:46;1.33;;;1.05;;
64959;SDS011;51487;52.266;10.542;2022-10-16T15:43:13;1.55;;;1.10;;
64959;SDS011;51487;52.266;10.542;2022-10-16T15:45:39;1.80;;;1.10;;
64959;SDS011;51487;52.266;10.542;2022-10-16T15:48:05;3.65;;;1.20;;
64959;SDS011;51487;52.266;10.542;2022-10-16T15:50:31;3.20;;;1.23;;
64959;SDS011;51487;52.266;10.542;2022-10-16T15:52:57;2.40;;;1.10;;
64959;SDS011;51487;52.266;10.542;2022-10-16T15:55:23;2.60;;;1.85;;
64959;SDS011;51487;52.266;10.542;2022-10-16T15:57:49;3.00;;;1.15;;
64959;SDS011;51487;52.266;10.542;2022-10-16T16:00:16;0.95;;;0.95;;
64959;SDS011;51487;52.266;10.542;2022-10-16T16:02:50;1.73;;;1.30;;
64959;SDS011;51487;52.266;10.542;2022-10-16T16:05:18;1.80;;;1.10;;
64959;SDS011;51487;52.266;10.542;2022-10-16T16:07:45;5.32;;;1.30;;
64959;SDS011;51487;52.266;10.542;2022-10-16T16:10:11;4.07;;;1.15;;
64959;SDS011;51487;52.266;10.542;2022-10-16T16:12:37;4.07;;;1.20;;
64959;SDS011;51487;52.266;10.542;2022-10-16T16:15:04;1.67;;;1.05;;
64959;SDS011;51487;52.266;10.542;2022-10-16T16:17:32;1.33;;;1.20;;
64959;SDS011;51487;52.266;10.542;2022-10-16T16:19:59;4.50;;;1.20;;
64959;SDS011;51487;52.266;10.542;2022-10-16T16:22:25;1.88;;;1.17;;
64959;SDS011;51487;52.266;10.542;2022-10-16T16:24:52;1.50;;;1.15;;
64959;SDS011;51487;52.266;10.542;2022-10-16T16:27:17;3.22;;;1.35;;
64959;SDS011;51487;52.266;10.542;2022-10-16T16:29:44;3.25;;;1.58;;
64959;SDS011;51487;52.266;10.542;2022-10-16T16:32:11;2.72;;;1.60;;
64959;SDS011;51487;52.266;10.542;2022-10-16T16:34:36;3.35;;;1.65;;
64959;SDS011;51487;52.266;10.542;2022-10-16T16:37:02;3.35;;;2.00;;
64959;SDS011;51487;52.266;10.542;2022-10-16T16:39:27;2.85;;;2.00;;
64959;SDS011;51487;52.266;10.542;2022-10-16T16:41:54;3.65;;;1.90;;
64959;SDS011;51487;52.266;10.542;2022-10-16T16:44:23;2.13;;;1.70;;
64959;SDS011;51487;52.266;10.542;2022-10-16T16:46:49;3.70;;;1.80;;
64959;SDS011;51487;52.266;10.542;2022-10-16T16:49:15;3.35;;;1.98;;
64959;SDS011;51487;52.266;10.542;2022-10-16T16:51:40;3.30;;;1.63;;
64959;SDS011;51487;52.266;10.542;2022-10-16T16:54:07;1.95;;;1.75;;
64959;SDS011;51487;52.266;10.542;2022-10-16T16:56:34;5.03;;;2.25;;
64959;SDS011;51487;52.266;10.542;2022-10-16T16:59:00;5.25;;;2.53;;
64959;SDS011;51487;52.266;10.542;2022-10-16T17:01:27;4.47;;;2.20;;
64959;SDS011;51487;52.266;10.542;2022-10-16T17:03:54;3.38;;;2.15;;